Всё
Polk County/Cornelius Moore Fld Airport (Cedartown, GA) 4A4 Погода
There is no TAF data available at 4A4 or any nearby airports.
There is no METAR data available at 4A4. Showing METAR data for KPUJ (14 mi ЮВ).
Недавняя история METAR для PUJ (для 4A4 данные отсутствуют)
| Date | Time (EDT) | Flight Rules | Wind Dir. | Speed | Type | Height AGL (ft) | Visibility | Temp (°C) | Temp (°F) | Dew Point (°C) | Dew Point (°F) | Rel. Humid. | Pressure | Density Altitude | Remarks |
|---|---|---|---|---|---|---|---|---|---|---|---|---|---|---|---|
| 02-май | 09:14 | VFR | 340° | 11 kt | 10 miles | 11° | 51° | 6° | 42° | 71% | 29.91 in Hg | 1,057 ft | Wind gusting to 16 KT | ||
| 02-май | 08:55 | VFR | 350° | 8 kt | 10 miles | 11° | 51° | 5° | 41° | 66% | 29.92 in Hg | 1,047 ft | |||
| 02-май | 08:35 | VFR | 340° | 8 kt | 10 miles | 11° | 51° | 5° | 41° | 66% | 29.90 in Hg | 1,067 ft | |||
| 02-май | 08:15 | VFR | 340° | 8 kt | 10 miles | 11° | 51° | 5° | 41° | 66% | 29.91 in Hg | 1,057 ft | |||
| 02-май | 07:55 | VFR | 340° | 9 kt | 10 miles | 11° | 51° | 5° | 41° | 66% | 29.90 in Hg | 1,067 ft | |||
| 02-май | 07:35 | VFR | 340° | 10 kt | 10 miles | 11° | 51° | 4° | 39° | 62% | 29.90 in Hg | 1,067 ft | |||
| 02-май | 07:15 | VFR | 340° | 11 kt | 10 miles | 11° | 51° | 4° | 39° | 62% | 29.90 in Hg | 1,067 ft | |||
| 02-май | 06:55 | VFR | 330° | 9 kt | 10 miles | 11° | 51° | 4° | 39° | 62% | 29.91 in Hg | 1,057 ft | |||
| 02-май | 06:15 | VFR | 330° | 9 kt | 10 miles | 11° | 51° | 5° | 41° | 66% | 29.89 in Hg | 1,077 ft | |||
| 02-май | 05:55 | VFR | 340° | 10 kt | 10 miles | 12° | 53° | 5° | 41° | 62% | 29.88 in Hg | 1,207 ft | |||
| 02-май | 05:35 | VFR | 340° | 11 kt | 10 miles | 12° | 53° | 5° | 41° | 62% | 29.88 in Hg | 1,207 ft | |||
| 02-май | 05:15 | VFR | 330° | 9 kt | 10 miles | 12° | 53° | 6° | 42° | 67% | 29.90 in Hg | 1,187 ft | |||
| 02-май | 04:55 | VFR | 340° | 11 kt | 10 miles | 12° | 53° | 7° | 44° | 71% | 29.89 in Hg | 1,197 ft | Wind gusting to 15 KT | ||
| 02-май | 04:15 | VFR | 340° | 8 kt | 10 miles | 12° | 53° | 8° | 46° | 76% | 29.89 in Hg | 1,197 ft | |||
| 02-май | 03:55 | VFR | 340° | 9 kt | 10 miles | 12° | 53° | 9° | 48° | 82% | 29.89 in Hg | 1,197 ft | |||
| 02-май | 03:15 | VFR | 330° | 10 kt | 10 miles | 13° | 55° | 10° | 50° | 82% | 29.91 in Hg | 1,297 ft | |||
| 02-май | 02:55 | VFR | 340° | 11 kt | 10 miles | 13° | 55° | 11° | 51° | 88% | 29.90 in Hg | 1,307 ft | |||
| 02-май | 02:35 | VFR | 340° | 9 kt | 10 miles | 13° | 55° | 10° | 50° | 82% | 29.92 in Hg | 1,287 ft | |||
| 02-май | 02:15 | VFR | 340° | 9 kt | 10 miles | 13° | 55° | 11° | 51° | 88% | 29.92 in Hg | 1,287 ft | |||
| 02-май | 01:55 | VFR | 330° | 10 kt | 10 miles | 13° | 55° | 11° | 51° | 88% | 29.92 in Hg | 1,287 ft | |||
| 02-май | 01:15 | VFR | 330° | 9 kt | 10 miles | 13° | 55° | 11° | 51° | 88% | 29.91 in Hg | 1,297 ft | |||
| 02-май | 00:55 | VFR | 310° | 5 kt | 10 miles | 14° | 57° | 11° | 51° | 82% | 29.92 in Hg | 1,407 ft | |||
| 02-май | 00:35 | VFR | 320° | 6 kt | 10 miles | 14° | 57° | 10° | 50° | 77% | 29.91 in Hg | 1,417 ft | |||
| 02-май | 00:15 | VFR | 330° | 9 kt | 10 miles | 15° | 59° | 10° | 50° | 72% | 29.92 in Hg | 1,527 ft |
Вход
| Ваш браузер не поддерживается.. обновите веб-браузер |
